sensor_id;sensor_type;location;lat;lon;timestamp;P1;durP1;ratioP1;P2;durP2;ratioP2
48327;SDS011;34136;51.022;7.082;2023-06-19T00:01:07;4.82;;;4.05;;
48327;SDS011;34136;51.022;7.082;2023-06-19T00:03:53;4.40;;;4.00;;
48327;SDS011;34136;51.022;7.082;2023-06-19T00:06:39;4.75;;;4.20;;
48327;SDS011;34136;51.022;7.082;2023-06-19T00:09:25;6.45;;;3.95;;
48327;SDS011;34136;51.022;7.082;2023-06-19T00:12:11;5.13;;;3.97;;
48327;SDS011;34136;51.022;7.082;2023-06-19T00:14:58;4.55;;;4.15;;
48327;SDS011;34136;51.022;7.082;2023-06-19T00:17:44;4.90;;;4.40;;
48327;SDS011;34136;51.022;7.082;2023-06-19T00:20:30;5.45;;;4.40;;
48327;SDS011;34136;51.022;7.082;2023-06-19T00:23:16;5.30;;;4.43;;
48327;SDS011;34136;51.022;7.082;2023-06-19T00:26:02;5.10;;;4.57;;
48327;SDS011;34136;51.022;7.082;2023-06-19T00:28:49;5.43;;;4.80;;
48327;SDS011;34136;51.022;7.082;2023-06-19T00:31:35;5.05;;;4.25;;
48327;SDS011;34136;51.022;7.082;2023-06-19T00:34:21;4.70;;;4.22;;
48327;SDS011;34136;51.022;7.082;2023-06-19T00:37:09;5.05;;;4.50;;
48327;SDS011;34136;51.022;7.082;2023-06-19T00:39:56;5.18;;;4.30;;
48327;SDS011;34136;51.022;7.082;2023-06-19T00:42:42;4.80;;;4.35;;
48327;SDS011;34136;51.022;7.082;2023-06-19T00:45:28;5.03;;;4.60;;
48327;SDS011;34136;51.022;7.082;2023-06-19T00:48:15;6.20;;;4.43;;
48327;SDS011;34136;51.022;7.082;2023-06-19T00:51:02;4.88;;;4.38;;
48327;SDS011;34136;51.022;7.082;2023-06-19T00:53:49;4.90;;;4.40;;
48327;SDS011;34136;51.022;7.082;2023-06-19T00:56:36;6.20;;;4.50;;
48327;SDS011;34136;51.022;7.082;2023-06-19T00:59:23;5.30;;;4.80;;
48327;SDS011;34136;51.022;7.082;2023-06-19T01:02:09;6.25;;;4.32;;
48327;SDS011;34136;51.022;7.082;2023-06-19T01:04:56;4.93;;;4.53;;
48327;SDS011;34136;51.022;7.082;2023-06-19T01:07:47;4.93;;;4.32;;
48327;SDS011;34136;51.022;7.082;2023-06-19T01:10:42;4.88;;;4.38;;
48327;SDS011;34136;51.022;7.082;2023-06-19T01:13:40;5.32;;;4.50;;
48327;SDS011;34136;51.022;7.082;2023-06-19T01:16:31;5.07;;;4.10;;
48327;SDS011;34136;51.022;7.082;2023-06-19T01:19:19;5.20;;;4.70;;
48327;SDS011;34136;51.022;7.082;2023-06-19T01:22:06;5.45;;;4.95;;
48327;SDS011;34136;51.022;7.082;2023-06-19T01:24:52;5.25;;;4.50;;
48327;SDS011;34136;51.022;7.082;2023-06-19T01:27:38;4.90;;;4.40;;
48327;SDS011;34136;51.022;7.082;2023-06-19T01:30:25;5.30;;;4.80;;
48327;SDS011;34136;51.022;7.082;2023-06-19T01:36:04;5.18;;;4.68;;
48327;SDS011;34136;51.022;7.082;2023-06-19T01:38:51;5.38;;;4.43;;
48327;SDS011;34136;51.022;7.082;2023-06-19T01:41:42;5.78;;;5.25;;
48327;SDS011;34136;51.022;7.082;2023-06-19T01:44:29;5.60;;;5.10;;
48327;SDS011;34136;51.022;7.082;2023-06-19T01:47:16;5.82;;;5.22;;
48327;SDS011;34136;51.022;7.082;2023-06-19T01:50:02;6.72;;;5.00;;
48327;SDS011;34136;51.022;7.082;2023-06-19T01:52:49;5.40;;;4.90;;
48327;SDS011;34136;51.022;7.082;2023-06-19T01:55:36;6.70;;;5.18;;
48327;SDS011;34136;51.022;7.082;2023-06-19T01:58:22;6.22;;;5.22;;
48327;SDS011;34136;51.022;7.082;2023-06-19T02:01:09;6.75;;;5.45;;
48327;SDS011;34136;51.022;7.082;2023-06-19T02:03:57;5.57;;;5.00;;
48327;SDS011;34136;51.022;7.082;2023-06-19T02:06:43;6.13;;;5.40;;
48327;SDS011;34136;51.022;7.082;2023-06-19T02:09:30;6.00;;;5.40;;
48327;SDS011;34136;51.022;7.082;2023-06-19T02:12:16;6.30;;;5.65;;
48327;SDS011;34136;51.022;7.082;2023-06-19T02:15:02;5.80;;;5.30;;
48327;SDS011;34136;51.022;7.082;2023-06-19T02:17:51;6.10;;;5.50;;
48327;SDS011;34136;51.022;7.082;2023-06-19T02:20:38;5.85;;;5.32;;
48327;SDS011;34136;51.022;7.082;2023-06-19T02:23:24;5.68;;;5.18;;
48327;SDS011;34136;51.022;7.082;2023-06-19T02:26:11;6.03;;;5.53;;
48327;SDS011;34136;51.022;7.082;2023-06-19T02:28:58;6.55;;;5.15;;
48327;SDS011;34136;51.022;7.082;2023-06-19T02:31:44;6.00;;;5.43;;
48327;SDS011;34136;51.022;7.082;2023-06-19T02:34:31;6.05;;;5.45;;
48327;SDS011;34136;51.022;7.082;2023-06-19T02:37:17;6.38;;;5.63;;
48327;SDS011;34136;51.022;7.082;2023-06-19T02:40:03;6.47;;;5.85;;
48327;SDS011;34136;51.022;7.082;2023-06-19T02:42:52;6.43;;;5.78;;
48327;SDS011;34136;51.022;7.082;2023-06-19T02:45:38;6.65;;;5.93;;
48327;SDS011;34136;51.022;7.082;2023-06-19T02:48:24;6.05;;;5.45;;
48327;SDS011;34136;51.022;7.082;2023-06-19T02:51:11;6.38;;;5.80;;
48327;SDS011;34136;51.022;7.082;2023-06-19T02:53:57;7.43;;;6.38;;
48327;SDS011;34136;51.022;7.082;2023-06-19T02:56:44;5.63;;;5.10;;
48327;SDS011;34136;51.022;7.082;2023-06-19T02:59:30;6.13;;;5.53;;
48327;SDS011;34136;51.022;7.082;2023-06-19T03:02:16;7.95;;;5.85;;
48327;SDS011;34136;51.022;7.082;2023-06-19T03:05:02;7.75;;;5.70;;
48327;SDS011;34136;51.022;7.082;2023-06-19T03:07:49;7.32;;;5.88;;
48327;SDS011;34136;51.022;7.082;2023-06-19T03:10:35;6.30;;;5.80;;
48327;SDS011;34136;51.022;7.082;2023-06-19T03:13:22;7.53;;;6.30;;
48327;SDS011;34136;51.022;7.082;2023-06-19T03:16:08;6.57;;;5.97;;
48327;SDS011;34136;51.022;7.082;2023-06-19T03:18:54;6.65;;;6.10;;
48327;SDS011;34136;51.022;7.082;2023-06-19T03:21:43;6.35;;;5.75;;
48327;SDS011;34136;51.022;7.082;2023-06-19T03:24:30;6.70;;;5.60;;
48327;SDS011;34136;51.022;7.082;2023-06-19T03:27:29;6.80;;;6.20;;
48327;SDS011;34136;51.022;7.082;2023-06-19T03:30:15;6.95;;;6.28;;
48327;SDS011;34136;51.022;7.082;2023-06-19T03:33:02;7.03;;;6.43;;
48327;SDS011;34136;51.022;7.082;2023-06-19T03:35:58;7.22;;;6.53;;
48327;SDS011;34136;51.022;7.082;2023-06-19T03:38:57;7.22;;;6.30;;
48327;SDS011;34136;51.022;7.082;2023-06-19T03:41:48;6.80;;;6.20;;
48327;SDS011;34136;51.022;7.082;2023-06-19T03:44:34;8.93;;;6.45;;
48327;SDS011;34136;51.022;7.082;2023-06-19T03:47:21;6.72;;;6.00;;
48327;SDS011;34136;51.022;7.082;2023-06-19T03:50:08;7.50;;;6.57;;
48327;SDS011;34136;51.022;7.082;2023-06-19T03:52:54;14.27;;;7.03;;
48327;SDS011;34136;51.022;7.082;2023-06-19T03:55:42;9.80;;;6.15;;
48327;SDS011;34136;51.022;7.082;2023-06-19T03:58:28;7.40;;;6.05;;
48327;SDS011;34136;51.022;7.082;2023-06-19T04:01:14;7.10;;;6.13;;
48327;SDS011;34136;51.022;7.082;2023-06-19T04:04:01;7.53;;;6.53;;
48327;SDS011;34136;51.022;7.082;2023-06-19T04:06:47;7.53;;;6.50;;
48327;SDS011;34136;51.022;7.082;2023-06-19T04:09:33;6.85;;;6.13;;
48327;SDS011;34136;51.022;7.082;2023-06-19T04:12:20;7.72;;;7.03;;
48327;SDS011;34136;51.022;7.082;2023-06-19T04:15:07;7.78;;;6.28;;
48327;SDS011;34136;51.022;7.082;2023-06-19T04:17:53;7.20;;;6.55;;
48327;SDS011;34136;51.022;7.082;2023-06-19T04:20:40;7.10;;;6.40;;
48327;SDS011;34136;51.022;7.082;2023-06-19T04:26:18;8.20;;;5.18;;
48327;SDS011;34136;51.022;7.082;2023-06-19T04:29:04;8.32;;;5.05;;
48327;SDS011;34136;51.022;7.082;2023-06-19T04:31:50;6.03;;;4.82;;
48327;SDS011;34136;51.022;7.082;2023-06-19T04:34:38;5.35;;;4.72;;
48327;SDS011;34136;51.022;7.082;2023-06-19T04:37:24;8.23;;;4.53;;
48327;SDS011;34136;51.022;7.082;2023-06-19T04:40:10;4.85;;;4.30;;
48327;SDS011;34136;51.022;7.082;2023-06-19T04:42:56;4.35;;;3.85;;
48327;SDS011;34136;51.022;7.082;2023-06-19T04:45:43;4.78;;;3.80;;
48327;SDS011;34136;51.022;7.082;2023-06-19T04:48:29;7.15;;;3.95;;
48327;SDS011;34136;51.022;7.082;2023-06-19T04:51:18;5.38;;;4.28;;
48327;SDS011;34136;51.022;7.082;2023-06-19T04:54:05;4.68;;;4.20;;
48327;SDS011;34136;51.022;7.082;2023-06-19T04:56:51;6.07;;;3.80;;
48327;SDS011;34136;51.022;7.082;2023-06-19T04:59:37;5.07;;;3.95;;
48327;SDS011;34136;51.022;7.082;2023-06-19T05:02:23;4.28;;;3.88;;
48327;SDS011;34136;51.022;7.082;2023-06-19T05:05:09;5.05;;;3.50;;
48327;SDS011;34136;51.022;7.082;2023-06-19T05:07:55;8.20;;;3.72;;
48327;SDS011;34136;51.022;7.082;2023-06-19T05:10:41;3.80;;;3.20;;
48327;SDS011;34136;51.022;7.082;2023-06-19T05:13:27;7.85;;;3.20;;
48327;SDS011;34136;51.022;7.082;2023-06-19T05:16:14;5.13;;;3.47;;
48327;SDS011;34136;51.022;7.082;2023-06-19T05:19:00;5.32;;;3.67;;
48327;SDS011;34136;51.022;7.082;2023-06-19T05:21:46;4.40;;;3.40;;
48327;SDS011;34136;51.022;7.082;2023-06-19T05:24:32;5.93;;;3.67;;
48327;SDS011;34136;51.022;7.082;2023-06-19T05:27:19;3.97;;;3.05;;
48327;SDS011;34136;51.022;7.082;2023-06-19T05:30:05;3.47;;;3.15;;
48327;SDS011;34136;51.022;7.082;2023-06-19T05:32:52;4.65;;;3.50;;
48327;SDS011;34136;51.022;7.082;2023-06-19T05:35:38;3.47;;;2.90;;
48327;SDS011;34136;51.022;7.082;2023-06-19T05:38:24;7.22;;;3.28;;
48327;SDS011;34136;51.022;7.082;2023-06-19T05:41:11;4.75;;;3.20;;
48327;SDS011;34136;51.022;7.082;2023-06-19T05:43:59;5.47;;;3.20;;
48327;SDS011;34136;51.022;7.082;2023-06-19T05:46:46;3.33;;;3.03;;
48327;SDS011;34136;51.022;7.082;2023-06-19T05:49:32;3.70;;;3.30;;
48327;SDS011;34136;51.022;7.082;2023-06-19T05:52:18;3.50;;;3.05;;
48327;SDS011;34136;51.022;7.082;2023-06-19T05:55:04;5.53;;;3.25;;
48327;SDS011;34136;51.022;7.082;2023-06-19T05:57:51;4.55;;;3.30;;
48327;SDS011;34136;51.022;7.082;2023-06-19T06:00:37;4.18;;;2.97;;
48327;SDS011;34136;51.022;7.082;2023-06-19T06:03:24;4.47;;;3.22;;
48327;SDS011;34136;51.022;7.082;2023-06-19T06:06:10;5.63;;;2.78;;
48327;SDS011;34136;51.022;7.082;2023-06-19T06:08:57;4.03;;;2.63;;
48327;SDS011;34136;51.022;7.082;2023-06-19T06:11:43;4.70;;;2.70;;
48327;SDS011;34136;51.022;7.082;2023-06-19T06:14:29;4.72;;;2.53;;
48327;SDS011;34136;51.022;7.082;2023-06-19T06:17:16;4.07;;;2.60;;
48327;SDS011;34136;51.022;7.082;2023-06-19T06:20:02;2.90;;;2.53;;
48327;SDS011;34136;51.022;7.082;2023-06-19T06:22:49;3.55;;;2.80;;
48327;SDS011;34136;51.022;7.082;2023-06-19T06:25:35;2.63;;;2.10;;
48327;SDS011;34136;51.022;7.082;2023-06-19T06:28:21;5.07;;;2.45;;
48327;SDS011;34136;51.022;7.082;2023-06-19T06:31:08;2.10;;;1.75;;
48327;SDS011;34136;51.022;7.082;2023-06-19T06:33:54;6.13;;;2.13;;
48327;SDS011;34136;51.022;7.082;2023-06-19T06:36:40;2.70;;;2.30;;
48327;SDS011;34136;51.022;7.082;2023-06-19T06:39:27;2.90;;;2.03;;
48327;SDS011;34136;51.022;7.082;2023-06-19T06:42:13;3.97;;;1.88;;
48327;SDS011;34136;51.022;7.082;2023-06-19T06:45:00;2.95;;;1.88;;
48327;SDS011;34136;51.022;7.082;2023-06-19T06:47:46;2.13;;;1.50;;
48327;SDS011;34136;51.022;7.082;2023-06-19T06:50:32;2.25;;;1.60;;
48327;SDS011;34136;51.022;7.082;2023-06-19T06:53:18;2.70;;;1.65;;
48327;SDS011;34136;51.022;7.082;2023-06-19T06:56:05;3.08;;;1.85;;
48327;SDS011;34136;51.022;7.082;2023-06-19T06:58:51;2.28;;;1.48;;
48327;SDS011;34136;51.022;7.082;2023-06-19T07:01:37;3.28;;;1.65;;
48327;SDS011;34136;51.022;7.082;2023-06-19T07:04:23;2.35;;;1.40;;
48327;SDS011;34136;51.022;7.082;2023-06-19T07:07:08;2.22;;;1.83;;
48327;SDS011;34136;51.022;7.082;2023-06-19T07:09:55;3.95;;;1.40;;
48327;SDS011;34136;51.022;7.082;2023-06-19T07:12:47;2.35;;;1.50;;
48327;SDS011;34136;51.022;7.082;2023-06-19T07:15:34;2.38;;;1.50;;
48327;SDS011;34136;51.022;7.082;2023-06-19T07:18:20;2.20;;;1.65;;
48327;SDS011;34136;51.022;7.082;2023-06-19T07:21:10;2.17;;;1.48;;
48327;SDS011;34136;51.022;7.082;2023-06-19T07:23:57;3.17;;;1.80;;
48327;SDS011;34136;51.022;7.082;2023-06-19T07:26:45;2.90;;;1.70;;
48327;SDS011;34136;51.022;7.082;2023-06-19T07:29:32;2.15;;;1.23;;
48327;SDS011;34136;51.022;7.082;2023-06-19T07:32:18;2.50;;;1.40;;
48327;SDS011;34136;51.022;7.082;2023-06-19T07:35:04;1.88;;;1.30;;
48327;SDS011;34136;51.022;7.082;2023-06-19T07:37:51;3.72;;;1.60;;
48327;SDS011;34136;51.022;7.082;2023-06-19T07:40:37;2.55;;;1.90;;
48327;SDS011;34136;51.022;7.082;2023-06-19T07:43:24;4.18;;;1.50;;
48327;SDS011;34136;51.022;7.082;2023-06-19T07:46:10;2.38;;;1.30;;
48327;SDS011;34136;51.022;7.082;2023-06-19T07:48:56;2.00;;;1.35;;
48327;SDS011;34136;51.022;7.082;2023-06-19T07:51:42;4.07;;;1.50;;
48327;SDS011;34136;51.022;7.082;2023-06-19T07:54:28;3.58;;;1.35;;
48327;SDS011;34136;51.022;7.082;2023-06-19T07:57:15;2.03;;;1.50;;
48327;SDS011;34136;51.022;7.082;2023-06-19T08:00:01;6.95;;;1.58;;
48327;SDS011;34136;51.022;7.082;2023-06-19T08:02:57;2.17;;;1.40;;
48327;SDS011;34136;51.022;7.082;2023-06-19T08:05:43;2.22;;;1.42;;
48327;SDS011;34136;51.022;7.082;2023-06-19T08:08:29;1.83;;;1.15;;
48327;SDS011;34136;51.022;7.082;2023-06-19T08:11:16;2.03;;;1.30;;
48327;SDS011;34136;51.022;7.082;2023-06-19T08:14:02;4.43;;;1.50;;
48327;SDS011;34136;51.022;7.082;2023-06-19T08:16:48;3.35;;;1.15;;
48327;SDS011;34136;51.022;7.082;2023-06-19T08:19:34;3.95;;;1.88;;
48327;SDS011;34136;51.022;7.082;2023-06-19T08:22:21;3.40;;;1.35;;
48327;SDS011;34136;51.022;7.082;2023-06-19T08:25:07;2.03;;;1.38;;
48327;SDS011;34136;51.022;7.082;2023-06-19T08:27:53;4.00;;;1.63;;
48327;SDS011;34136;51.022;7.082;2023-06-19T08:30:40;3.38;;;2.50;;
48327;SDS011;34136;51.022;7.082;2023-06-19T08:33:26;5.38;;;1.98;;
48327;SDS011;34136;51.022;7.082;2023-06-19T08:36:12;2.88;;;1.67;;
48327;SDS011;34136;51.022;7.082;2023-06-19T08:38:59;5.18;;;1.70;;
48327;SDS011;34136;51.022;7.082;2023-06-19T08:41:46;4.10;;;1.92;;
48327;SDS011;34136;51.022;7.082;2023-06-19T08:44:33;4.78;;;1.65;;
48327;SDS011;34136;51.022;7.082;2023-06-19T08:47:20;4.05;;;1.65;;
48327;SDS011;34136;51.022;7.082;2023-06-19T08:50:06;3.63;;;1.38;;
48327;SDS011;34136;51.022;7.082;2023-06-19T08:52:54;2.20;;;1.60;;
48327;SDS011;34136;51.022;7.082;2023-06-19T08:55:40;4.47;;;1.67;;
48327;SDS011;34136;51.022;7.082;2023-06-19T08:58:27;5.63;;;1.80;;
48327;SDS011;34136;51.022;7.082;2023-06-19T09:01:16;2.47;;;1.75;;
48327;SDS011;34136;51.022;7.082;2023-06-19T09:04:10;2.65;;;1.75;;
48327;SDS011;34136;51.022;7.082;2023-06-19T09:07:01;1.90;;;1.20;;
48327;SDS011;34136;51.022;7.082;2023-06-19T09:09:56;2.63;;;1.40;;
48327;SDS011;34136;51.022;7.082;2023-06-19T09:12:43;2.83;;;1.50;;
48327;SDS011;34136;51.022;7.082;2023-06-19T09:15:31;3.65;;;1.40;;
48327;SDS011;34136;51.022;7.082;2023-06-19T09:18:19;5.15;;;1.90;;
48327;SDS011;34136;51.022;7.082;2023-06-19T09:21:06;4.30;;;1.60;;
48327;SDS011;34136;51.022;7.082;2023-06-19T09:23:52;3.03;;;1.90;;
48327;SDS011;34136;51.022;7.082;2023-06-19T09:26:44;6.03;;;1.63;;
48327;SDS011;34136;51.022;7.082;2023-06-19T09:29:30;2.90;;;1.60;;
48327;SDS011;34136;51.022;7.082;2023-06-19T09:32:21;1.90;;;1.38;;
48327;SDS011;34136;51.022;7.082;2023-06-19T09:35:12;3.10;;;1.92;;
48327;SDS011;34136;51.022;7.082;2023-06-19T09:37:59;3.05;;;1.70;;
48327;SDS011;34136;51.022;7.082;2023-06-19T09:40:47;2.10;;;1.85;;
48327;SDS011;34136;51.022;7.082;2023-06-19T09:43:35;5.43;;;2.30;;
48327;SDS011;34136;51.022;7.082;2023-06-19T09:46:22;3.90;;;2.30;;
48327;SDS011;34136;51.022;7.082;2023-06-19T09:49:15;4.63;;;2.50;;
48327;SDS011;34136;51.022;7.082;2023-06-19T09:52:03;2.83;;;2.38;;
48327;SDS011;34136;51.022;7.082;2023-06-19T09:54:50;3.17;;;2.50;;
48327;SDS011;34136;51.022;7.082;2023-06-19T09:57:38;3.53;;;2.78;;
48327;SDS011;34136;51.022;7.082;2023-06-19T10:00:25;7.47;;;2.80;;
48327;SDS011;34136;51.022;7.082;2023-06-19T10:03:12;4.10;;;2.60;;
48327;SDS011;34136;51.022;7.082;2023-06-19T10:05:59;3.17;;;2.75;;
48327;SDS011;34136;51.022;7.082;2023-06-19T10:08:47;4.32;;;2.80;;
48327;SDS011;34136;51.022;7.082;2023-06-19T10:11:50;4.57;;;2.75;;
48327;SDS011;34136;51.022;7.082;2023-06-19T10:14:44;6.20;;;3.08;;
48327;SDS011;34136;51.022;7.082;2023-06-19T10:17:33;5.00;;;3.10;;
48327;SDS011;34136;51.022;7.082;2023-06-19T10:20:23;6.20;;;3.40;;
48327;SDS011;34136;51.022;7.082;2023-06-19T10:23:15;6.43;;;3.25;;
48327;SDS011;34136;51.022;7.082;2023-06-19T10:26:03;4.55;;;3.28;;
48327;SDS011;34136;51.022;7.082;2023-06-19T10:28:51;5.40;;;3.50;;
48327;SDS011;34136;51.022;7.082;2023-06-19T10:31:38;9.52;;;3.72;;
48327;SDS011;34136;51.022;7.082;2023-06-19T10:34:32;5.43;;;3.22;;
48327;SDS011;34136;51.022;7.082;2023-06-19T10:37:31;5.97;;;3.47;;
48327;SDS011;34136;51.022;7.082;2023-06-19T10:40:18;4.57;;;3.40;;
48327;SDS011;34136;51.022;7.082;2023-06-19T10:43:04;3.88;;;3.25;;
48327;SDS011;34136;51.022;7.082;2023-06-19T10:45:51;5.68;;;3.50;;
48327;SDS011;34136;51.022;7.082;2023-06-19T10:48:37;5.32;;;3.60;;
48327;SDS011;34136;51.022;7.082;2023-06-19T10:51:23;4.78;;;3.35;;
48327;SDS011;34136;51.022;7.082;2023-06-19T10:54:10;6.38;;;3.55;;
48327;SDS011;34136;51.022;7.082;2023-06-19T10:56:56;7.70;;;3.40;;
48327;SDS011;34136;51.022;7.082;2023-06-19T10:59:43;6.00;;;3.67;;
48327;SDS011;34136;51.022;7.082;2023-06-19T11:02:29;3.95;;;3.50;;
48327;SDS011;34136;51.022;7.082;2023-06-19T11:05:15;5.22;;;3.85;;
48327;SDS011;34136;51.022;7.082;2023-06-19T11:08:01;4.18;;;3.67;;
48327;SDS011;34136;51.022;7.082;2023-06-19T11:10:48;8.82;;;4.35;;
48327;SDS011;34136;51.022;7.082;2023-06-19T11:13:35;5.05;;;4.07;;
48327;SDS011;34136;51.022;7.082;2023-06-19T11:16:22;7.47;;;3.88;;
48327;SDS011;34136;51.022;7.082;2023-06-19T11:19:09;6.10;;;3.90;;
48327;SDS011;34136;51.022;7.082;2023-06-19T11:21:59;7.10;;;4.10;;
48327;SDS011;34136;51.022;7.082;2023-06-19T11:24:46;6.07;;;3.35;;
48327;SDS011;34136;51.022;7.082;2023-06-19T11:27:32;8.00;;;3.33;;
48327;SDS011;34136;51.022;7.082;2023-06-19T11:30:29;7.15;;;3.63;;
48327;SDS011;34136;51.022;7.082;2023-06-19T11:33:20;4.85;;;3.67;;
48327;SDS011;34136;51.022;7.082;2023-06-19T11:36:07;11.50;;;3.70;;
48327;SDS011;34136;51.022;7.082;2023-06-19T11:38:54;7.13;;;3.63;;
48327;SDS011;34136;51.022;7.082;2023-06-19T11:41:43;5.60;;;3.70;;
48327;SDS011;34136;51.022;7.082;2023-06-19T11:44:30;5.07;;;3.63;;
48327;SDS011;34136;51.022;7.082;2023-06-19T11:47:18;5.22;;;3.80;;
48327;SDS011;34136;51.022;7.082;2023-06-19T11:50:05;6.03;;;3.92;;
48327;SDS011;34136;51.022;7.082;2023-06-19T11:52:52;6.07;;;3.50;;
48327;SDS011;34136;51.022;7.082;2023-06-19T11:55:39;8.23;;;3.70;;
48327;SDS011;34136;51.022;7.082;2023-06-19T11:58:25;7.55;;;4.00;;
48327;SDS011;34136;51.022;7.082;2023-06-19T12:01:11;7.43;;;4.13;;
48327;SDS011;34136;51.022;7.082;2023-06-19T12:03:57;6.88;;;3.55;;
48327;SDS011;34136;51.022;7.082;2023-06-19T12:06:43;5.80;;;3.53;;
48327;SDS011;34136;51.022;7.082;2023-06-19T12:09:30;7.07;;;3.53;;
48327;SDS011;34136;51.022;7.082;2023-06-19T12:12:16;8.75;;;3.97;;
48327;SDS011;34136;51.022;7.082;2023-06-19T12:15:04;6.78;;;3.47;;
48327;SDS011;34136;51.022;7.082;2023-06-19T12:17:51;6.28;;;3.45;;
48327;SDS011;34136;51.022;7.082;2023-06-19T12:20:38;8.88;;;3.28;;
48327;SDS011;34136;51.022;7.082;2023-06-19T12:23:24;5.75;;;3.40;;
48327;SDS011;34136;51.022;7.082;2023-06-19T12:26:11;4.78;;;3.45;;
48327;SDS011;34136;51.022;7.082;2023-06-19T12:28:57;8.93;;;3.95;;
48327;SDS011;34136;51.022;7.082;2023-06-19T12:31:43;4.40;;;3.28;;
48327;SDS011;34136;51.022;7.082;2023-06-19T12:34:29;5.25;;;3.80;;
48327;SDS011;34136;51.022;7.082;2023-06-19T12:37:16;6.03;;;3.35;;
48327;SDS011;34136;51.022;7.082;2023-06-19T12:40:03;5.03;;;3.33;;
48327;SDS011;34136;51.022;7.082;2023-06-19T12:42:50;7.10;;;3.63;;
48327;SDS011;34136;51.022;7.082;2023-06-19T12:45:36;7.63;;;3.65;;
48327;SDS011;34136;51.022;7.082;2023-06-19T12:48:23;4.72;;;3.50;;
48327;SDS011;34136;51.022;7.082;2023-06-19T12:51:09;7.65;;;4.28;;
48327;SDS011;34136;51.022;7.082;2023-06-19T12:53:56;7.05;;;4.25;;
48327;SDS011;34136;51.022;7.082;2023-06-19T12:56:42;5.88;;;3.47;;
48327;SDS011;34136;51.022;7.082;2023-06-19T12:59:28;6.30;;;3.45;;
48327;SDS011;34136;51.022;7.082;2023-06-19T13:02:14;5.43;;;3.25;;
48327;SDS011;34136;51.022;7.082;2023-06-19T13:05:01;5.57;;;3.20;;
48327;SDS011;34136;51.022;7.082;2023-06-19T13:07:47;5.28;;;3.70;;
48327;SDS011;34136;51.022;7.082;2023-06-19T13:10:33;8.80;;;3.45;;
48327;SDS011;34136;51.022;7.082;2023-06-19T13:13:19;5.30;;;3.50;;
48327;SDS011;34136;51.022;7.082;2023-06-19T13:16:06;4.78;;;3.22;;
48327;SDS011;34136;51.022;7.082;2023-06-19T13:18:52;5.45;;;3.75;;
48327;SDS011;34136;51.022;7.082;2023-06-19T13:21:40;6.57;;;3.47;;
48327;SDS011;34136;51.022;7.082;2023-06-19T13:24:27;4.03;;;3.10;;
48327;SDS011;34136;51.022;7.082;2023-06-19T13:27:13;4.68;;;2.97;;
48327;SDS011;34136;51.022;7.082;2023-06-19T13:29:59;6.55;;;3.33;;
48327;SDS011;34136;51.022;7.082;2023-06-19T13:32:46;3.58;;;3.15;;
48327;SDS011;34136;51.022;7.082;2023-06-19T13:35:33;6.70;;;3.33;;
48327;SDS011;34136;51.022;7.082;2023-06-19T13:38:19;5.47;;;3.63;;
48327;SDS011;34136;51.022;7.082;2023-06-19T13:41:06;9.02;;;4.28;;
48327;SDS011;34136;51.022;7.082;2023-06-19T13:43:52;6.20;;;4.00;;
48327;SDS011;34136;51.022;7.082;2023-06-19T13:46:38;6.45;;;3.67;;
48327;SDS011;34136;51.022;7.082;2023-06-19T13:49:25;5.15;;;3.90;;
48327;SDS011;34136;51.022;7.082;2023-06-19T13:52:11;5.93;;;4.05;;
48327;SDS011;34136;51.022;7.082;2023-06-19T13:54:57;5.85;;;3.25;;
48327;SDS011;34136;51.022;7.082;2023-06-19T13:57:43;5.85;;;3.55;;
48327;SDS011;34136;51.022;7.082;2023-06-19T14:00:29;6.03;;;3.20;;
48327;SDS011;34136;51.022;7.082;2023-06-19T14:03:15;8.77;;;3.60;;
48327;SDS011;34136;51.022;7.082;2023-06-19T14:06:02;5.05;;;3.40;;
48327;SDS011;34136;51.022;7.082;2023-06-19T14:08:48;6.95;;;3.70;;
48327;SDS011;34136;51.022;7.082;2023-06-19T14:11:34;5.47;;;3.42;;
48327;SDS011;34136;51.022;7.082;2023-06-19T14:14:21;5.82;;;3.58;;
48327;SDS011;34136;51.022;7.082;2023-06-19T14:17:07;5.70;;;3.53;;
48327;SDS011;34136;51.022;7.082;2023-06-19T14:19:53;5.18;;;3.50;;
48327;SDS011;34136;51.022;7.082;2023-06-19T14:22:40;6.35;;;3.85;;
48327;SDS011;34136;51.022;7.082;2023-06-19T14:25:26;5.85;;;3.67;;
48327;SDS011;34136;51.022;7.082;2023-06-19T14:28:12;4.78;;;3.88;;
48327;SDS011;34136;51.022;7.082;2023-06-19T14:31:00;9.23;;;3.95;;
48327;SDS011;34136;51.022;7.082;2023-06-19T14:33:46;6.00;;;3.90;;
48327;SDS011;34136;51.022;7.082;2023-06-19T14:36:32;8.10;;;3.55;;
48327;SDS011;34136;51.022;7.082;2023-06-19T14:39:18;5.35;;;3.67;;
48327;SDS011;34136;51.022;7.082;2023-06-19T14:42:04;6.32;;;3.85;;
48327;SDS011;34136;51.022;7.082;2023-06-19T14:44:51;6.40;;;3.83;;
48327;SDS011;34136;51.022;7.082;2023-06-19T14:47:37;4.95;;;3.85;;
48327;SDS011;34136;51.022;7.082;2023-06-19T14:50:23;6.55;;;3.72;;
48327;SDS011;34136;51.022;7.082;2023-06-19T14:53:09;5.97;;;3.80;;
48327;SDS011;34136;51.022;7.082;2023-06-19T14:55:55;6.85;;;3.67;;
48327;SDS011;34136;51.022;7.082;2023-06-19T14:58:42;6.13;;;3.90;;
48327;SDS011;34136;51.022;7.082;2023-06-19T15:01:28;6.05;;;3.85;;
48327;SDS011;34136;51.022;7.082;2023-06-19T15:04:14;6.43;;;3.67;;
48327;SDS011;34136;51.022;7.082;2023-06-19T15:07:00;6.88;;;3.67;;
48327;SDS011;34136;51.022;7.082;2023-06-19T15:09:46;6.93;;;3.50;;
48327;SDS011;34136;51.022;7.082;2023-06-19T15:12:32;5.55;;;3.20;;
48327;SDS011;34136;51.022;7.082;2023-06-19T15:15:19;6.57;;;3.63;;
48327;SDS011;34136;51.022;7.082;2023-06-19T15:18:05;4.43;;;3.60;;
48327;SDS011;34136;51.022;7.082;2023-06-19T15:20:51;4.93;;;3.75;;
48327;SDS011;34136;51.022;7.082;2023-06-19T15:23:37;6.05;;;3.80;;
48327;SDS011;34136;51.022;7.082;2023-06-19T15:26:23;5.13;;;3.50;;
48327;SDS011;34136;51.022;7.082;2023-06-19T15:29:10;3.95;;;3.60;;
48327;SDS011;34136;51.022;7.082;2023-06-19T15:31:56;8.18;;;4.05;;
48327;SDS011;34136;51.022;7.082;2023-06-19T15:34:42;7.32;;;3.50;;
48327;SDS011;34136;51.022;7.082;2023-06-19T15:37:28;5.13;;;3.33;;
48327;SDS011;34136;51.022;7.082;2023-06-19T15:40:14;4.82;;;3.60;;
48327;SDS011;34136;51.022;7.082;2023-06-19T15:43:00;6.13;;;3.35;;
48327;SDS011;34136;51.022;7.082;2023-06-19T15:45:46;8.05;;;3.58;;
48327;SDS011;34136;51.022;7.082;2023-06-19T15:48:32;5.88;;;3.83;;
48327;SDS011;34136;51.022;7.082;2023-06-19T15:51:19;5.45;;;3.25;;
48327;SDS011;34136;51.022;7.082;2023-06-19T15:54:05;4.30;;;3.55;;
48327;SDS011;34136;51.022;7.082;2023-06-19T15:56:51;5.60;;;3.25;;
48327;SDS011;34136;51.022;7.082;2023-06-19T15:59:38;6.93;;;3.60;;
48327;SDS011;34136;51.022;7.082;2023-06-19T16:02:24;6.80;;;3.63;;
48327;SDS011;34136;51.022;7.082;2023-06-19T16:05:10;3.88;;;3.40;;
48327;SDS011;34136;51.022;7.082;2023-06-19T16:07:56;7.55;;;3.80;;
48327;SDS011;34136;51.022;7.082;2023-06-19T16:10:43;8.48;;;4.28;;
48327;SDS011;34136;51.022;7.082;2023-06-19T16:13:30;6.93;;;3.78;;
48327;SDS011;34136;51.022;7.082;2023-06-19T16:16:17;4.97;;;3.40;;
48327;SDS011;34136;51.022;7.082;2023-06-19T16:19:03;4.50;;;3.70;;
48327;SDS011;34136;51.022;7.082;2023-06-19T16:21:50;5.25;;;3.28;;
48327;SDS011;34136;51.022;7.082;2023-06-19T16:24:36;4.97;;;3.58;;
48327;SDS011;34136;51.022;7.082;2023-06-19T16:27:23;5.82;;;3.58;;
48327;SDS011;34136;51.022;7.082;2023-06-19T16:30:09;6.25;;;3.53;;
48327;SDS011;34136;51.022;7.082;2023-06-19T16:32:56;4.03;;;3.30;;
48327;SDS011;34136;51.022;7.082;2023-06-19T16:35:44;4.05;;;3.25;;
48327;SDS011;34136;51.022;7.082;2023-06-19T16:38:30;4.20;;;3.45;;
48327;SDS011;34136;51.022;7.082;2023-06-19T16:41:16;4.57;;;3.53;;
48327;SDS011;34136;51.022;7.082;2023-06-19T16:44:03;3.92;;;3.45;;
48327;SDS011;34136;51.022;7.082;2023-06-19T16:46:51;4.78;;;3.40;;
48327;SDS011;34136;51.022;7.082;2023-06-19T16:49:38;5.45;;;3.28;;
48327;SDS011;34136;51.022;7.082;2023-06-19T16:52:27;4.22;;;3.05;;